Leonta, New York
Current Conditions -  °F | °C
As of 6:53 PM on Tuesday 25 Nov 2014 (Local Time) from KBGM Reporting Station
Clear Clear  
Wind Chill: 35°   Ceiling: Unl
Heat Index: 40°   Visibility: 10mi
Dew Point: 24°   Wind: 7mph
Humidity: 53%   Direction: 230°SW
Pressure: 30.02"   Gusts: NA
Location:  42.3431°N, 75.1366°W
Report Text: KBGM 252353Z 23006KT 10SM CLR 04/M04 A3002 RMK AO2 SLP176 T00441044 10083 20039 51027
Loading
Personal Weather Stations






























Interactive Weather Map New forecast layout! Learn more

10-Day Weather Forecast

Advertisements
Track Severe Weather on mobile